createdAt,value
2022-12-17T00:03:42.583Z,26.20
2022-12-17T00:09:02.952Z,22.80
2022-12-17T00:14:24.904Z,23.20
2022-12-17T00:19:45.275Z,22.80
2022-12-17T00:25:05.621Z,23.20
2022-12-17T00:30:28.892Z,28.80
2022-12-17T00:35:49.435Z,27.20
2022-12-17T00:41:10.176Z,26.40
2022-12-17T00:46:32.153Z,24.20
2022-12-17T00:51:52.732Z,21.00
2022-12-17T00:57:12.925Z,24.00
2022-12-17T01:02:35.011Z,24.20
2022-12-17T01:07:55.308Z,24.80
2022-12-17T01:13:16.503Z,22.20
2022-12-17T01:18:38.281Z,23.20
2022-12-17T01:23:58.580Z,24.40
2022-12-17T01:29:18.769Z,21.60
2022-12-17T01:34:40.274Z,22.40
2022-12-17T01:40:00.580Z,21.00
2022-12-17T01:45:20.992Z,21.40
2022-12-17T01:50:43.542Z,22.20
2022-12-17T01:56:03.751Z,21.60
2022-12-17T02:01:24.477Z,20.80
2022-12-17T02:06:46.505Z,21.80
2022-12-17T02:12:10.440Z,19.80
2022-12-17T02:17:32.761Z,21.00
2022-12-17T02:22:57.642Z,21.00
2022-12-17T02:28:19.586Z,17.20
2022-12-17T02:33:40.142Z,21.20
2022-12-17T02:39:01.443Z,21.40
2022-12-17T02:44:23.870Z,20.60
2022-12-17T02:49:40.976Z,21.00
2022-12-17T02:55:01.559Z,17.60
2022-12-17T03:00:24.526Z,19.20
2022-12-17T03:05:45.963Z,21.00
2022-12-17T03:11:06.432Z,18.60
2022-12-17T03:16:34.200Z,19.00
2022-12-17T03:21:57.767Z,18.80
2022-12-17T03:27:18.241Z,17.00
2022-12-17T03:32:39.715Z,18.00
2022-12-17T03:38:00.156Z,20.80
2022-12-17T03:43:24.708Z,18.00
2022-12-17T03:48:46.053Z,17.60
2022-12-17T03:54:06.312Z,18.00
2022-12-17T03:59:26.461Z,18.60
2022-12-17T04:04:47.969Z,16.80
2022-12-17T04:10:08.225Z,19.60
2022-12-17T04:15:29.076Z,18.00
2022-12-17T04:20:50.816Z,18.00
2022-12-17T04:26:11.326Z,17.20
2022-12-17T04:31:31.839Z,16.60
2022-12-17T04:36:53.546Z,18.60
2022-12-17T04:42:13.928Z,15.00
2022-12-17T04:47:34.286Z,16.80
2022-12-17T04:52:55.779Z,15.00
2022-12-17T04:58:20.611Z,16.60
2022-12-17T05:03:41.088Z,15.60
2022-12-17T05:09:08.442Z,19.20
2022-12-17T05:14:28.796Z,15.80
2022-12-17T05:19:48.997Z,16.80
2022-12-17T05:25:10.834Z,19.20
2022-12-17T05:30:31.248Z,15.40
2022-12-17T05:35:51.439Z,14.40
2022-12-17T05:41:14.357Z,17.40
2022-12-17T05:46:34.472Z,15.20
2022-12-17T05:51:54.777Z,18.20
2022-12-17T05:57:16.335Z,17.80
2022-12-17T06:02:37.068Z,17.00
2022-12-17T06:07:57.463Z,16.80
2022-12-17T06:13:18.759Z,15.40
2022-12-17T06:18:47.392Z,15.20
2022-12-17T06:24:22.325Z,15.00
2022-12-17T06:29:43.892Z,14.00
2022-12-17T06:35:04.276Z,14.40
2022-12-17T06:40:25.522Z,16.00
2022-12-17T06:45:47.199Z,15.00
2022-12-17T06:51:07.597Z,15.60
2022-12-17T06:56:27.863Z,13.80
2022-12-17T07:01:49.509Z,13.40
2022-12-17T07:07:10.125Z,13.60
2022-12-17T07:12:30.236Z,13.80
2022-12-17T07:17:52.203Z,14.20
2022-12-17T07:23:27.996Z,14.40
2022-12-17T07:28:48.475Z,12.80
2022-12-17T07:34:10.296Z,15.60
2022-12-17T07:39:30.907Z,14.20
2022-12-17T07:44:51.213Z,15.00
2022-12-17T07:50:13.391Z,15.20
2022-12-17T07:55:33.991Z,15.00
2022-12-17T08:00:54.228Z,15.00
2022-12-17T08:06:17.085Z,13.60
2022-12-17T08:11:37.231Z,79.33
2022-12-17T08:16:58.352Z,51.25
2022-12-17T08:22:20.684Z,54.00
2022-12-17T08:27:41.047Z,49.50
2022-12-17T08:33:03.501Z,53.00
2022-12-17T08:38:25.466Z,55.00
2022-12-17T08:43:45.620Z,52.25
2022-12-17T08:49:05.771Z,52.50
2022-12-17T08:54:27.481Z,53.75
2022-12-17T08:59:48.045Z,51.75
2022-12-17T09:05:08.189Z,45.50
2022-12-17T09:10:29.860Z,44.00
2022-12-17T09:15:50.548Z,45.25
2022-12-17T09:21:11.289Z,40.50
2022-12-17T09:26:38.060Z,39.00
2022-12-17T09:31:58.196Z,40.50
2022-12-17T09:37:18.589Z,41.75
2022-12-17T09:42:45.515Z,39.75
2022-12-17T09:48:10.810Z,40.25
2022-12-17T09:53:39.286Z,34.25
2022-12-17T09:59:00.858Z,35.25
2022-12-17T10:04:20.919Z,37.50
2022-12-17T10:09:41.545Z,36.50
2022-12-17T10:15:03.332Z,35.75
2022-12-17T10:20:32.614Z,33.75
2022-12-17T10:25:53.161Z,28.60
2022-12-17T10:31:14.703Z,31.50
2022-12-17T10:36:39.258Z,27.00
2022-12-17T10:42:11.411Z,32.80
2022-12-17T10:47:34.360Z,27.00
2022-12-17T10:52:54.737Z,30.40
2022-12-17T10:58:21.049Z,30.20
2022-12-17T11:03:51.225Z,27.60
2022-12-17T11:09:11.708Z,26.00
2022-12-17T11:14:32.176Z,25.40
2022-12-17T11:19:56.942Z,28.00
2022-12-17T11:25:22.635Z,27.60
2022-12-17T11:30:45.492Z,27.80
2022-12-17T11:36:10.604Z,27.80
2022-12-17T11:41:34.315Z,26.00
2022-12-17T11:46:57.867Z,22.80
2022-12-17T11:52:22.017Z,27.20
2022-12-17T11:57:43.775Z,25.60
2022-12-17T12:03:12.432Z,23.80
2022-12-17T12:08:37.495Z,25.60
2022-12-17T12:13:59.425Z,23.80
2022-12-17T12:19:24.724Z,22.40
2022-12-17T12:25:10.873Z,23.60
2022-12-17T12:30:32.684Z,23.60
2022-12-17T12:35:52.991Z,24.80
2022-12-17T12:41:17.482Z,20.80
2022-12-17T12:46:39.545Z,22.60
2022-12-17T12:52:00.153Z,19.60
2022-12-17T12:57:22.037Z,21.80
2022-12-17T13:02:44.717Z,23.20
2022-12-17T13:07:47.771Z,22.40
2022-12-17T13:12:51.979Z,24.00
2022-12-17T13:18:00.231Z,18.40
2022-12-17T13:23:15.591Z,18.60
2022-12-17T13:28:29.554Z,19.40
2022-12-17T13:33:35.877Z,18.00
2022-12-17T13:38:43.893Z,20.80
2022-12-17T13:43:49.414Z,18.60
2022-12-17T13:48:56.421Z,17.00
2022-12-17T13:53:59.781Z,16.60
2022-12-17T13:59:09.291Z,17.60
2022-12-17T14:04:23.346Z,19.00
2022-12-17T14:09:30.869Z,17.80
2022-12-17T14:14:43.648Z,17.40
2022-12-17T14:19:46.535Z,16.80
2022-12-17T14:24:49.447Z,17.80
2022-12-17T14:29:53.736Z,19.00
2022-12-17T14:35:00.996Z,18.60
2022-12-17T14:40:05.363Z,16.00
2022-12-17T14:45:22.765Z,15.00
2022-12-17T14:50:28.351Z,18.80
2022-12-17T14:55:35.813Z,16.60
2022-12-17T15:00:40.144Z,16.00
2022-12-17T15:05:43.000Z,17.80
2022-12-17T15:10:45.721Z,16.80
2022-12-17T15:15:49.797Z,17.00
2022-12-17T15:20:53.090Z,16.80
2022-12-17T15:25:56.110Z,15.60
2022-12-17T15:31:00.364Z,17.20
2022-12-17T15:36:03.154Z,16.20
2022-12-17T15:41:27.123Z,19.60
2022-12-17T15:46:31.465Z,19.00
2022-12-17T15:51:34.285Z,18.40
2022-12-17T15:56:37.459Z,19.60
2022-12-17T16:01:41.691Z,20.60
2022-12-17T16:06:44.540Z,22.80
2022-12-17T16:11:47.494Z,20.60
2022-12-17T16:16:51.879Z,20.40
2022-12-17T16:21:54.801Z,20.80
2022-12-17T16:27:04.046Z,23.60
2022-12-17T16:32:08.794Z,20.60
2022-12-17T16:37:11.652Z,24.00
2022-12-17T16:42:14.510Z,25.20
2022-12-17T16:47:18.736Z,26.40
2022-12-17T16:52:21.654Z,21.80
2022-12-17T16:57:24.421Z,25.80
2022-12-17T17:02:28.714Z,23.60
2022-12-17T17:07:31.577Z,24.00
2022-12-17T17:12:34.403Z,20.60
2022-12-17T17:17:53.846Z,25.20
2022-12-17T17:22:59.079Z,23.20
2022-12-17T17:28:01.904Z,23.40
2022-12-17T17:33:06.083Z,25.60
2022-12-17T17:38:08.832Z,27.00
2022-12-17T17:43:12.921Z,27.40
2022-12-17T17:48:17.057Z,25.80
2022-12-17T17:53:19.884Z,24.40
2022-12-17T17:58:22.700Z,27.20
2022-12-17T18:03:27.026Z,19.20
2022-12-17T18:08:31.454Z,22.60
2022-12-17T18:13:51.721Z,23.00
2022-12-17T18:18:57.576Z,20.20
2022-12-17T18:24:02.090Z,20.80
2022-12-17T18:29:08.952Z,20.80
2022-12-17T18:34:13.820Z,19.00
2022-12-17T18:39:17.305Z,20.80
2022-12-17T18:44:20.276Z,24.20
2022-12-17T18:49:24.486Z,19.80
2022-12-17T18:54:28.284Z,18.00
2022-12-17T18:59:31.496Z,18.60
2022-12-17T19:04:35.689Z,20.60
2022-12-17T19:09:40.103Z,21.80
2022-12-17T19:14:43.366Z,19.60
2022-12-17T19:19:48.122Z,18.60
2022-12-17T19:24:50.971Z,21.20
2022-12-17T19:29:54.887Z,18.20
2022-12-17T19:34:59.098Z,20.00
2022-12-17T19:40:01.896Z,17.80
2022-12-17T19:45:05.167Z,17.20
2022-12-17T19:50:10.135Z,19.60
2022-12-17T19:55:13.030Z,18.20
2022-12-17T20:00:16.408Z,17.40
2022-12-17T20:05:20.749Z,19.80
2022-12-17T20:10:23.532Z,19.80
2022-12-17T20:15:26.329Z,20.20
2022-12-17T20:20:30.552Z,18.00
2022-12-17T20:25:33.356Z,15.80
2022-12-17T20:30:36.138Z,20.40
2022-12-17T20:35:41.697Z,18.20
2022-12-17T20:40:44.493Z,19.80
2022-12-17T20:45:50.355Z,18.40
2022-12-17T20:50:54.821Z,20.20
2022-12-17T20:56:01.618Z,21.40
2022-12-17T21:01:06.010Z,18.80
2022-12-17T21:06:12.005Z,19.60
2022-12-17T21:11:14.811Z,23.80
2022-12-17T21:16:19.644Z,23.00
2022-12-17T21:21:25.016Z,27.00
2022-12-17T21:26:29.201Z,30.25
2022-12-17T21:31:33.070Z,32.50
2022-12-17T21:36:37.278Z,32.00
2022-12-17T21:41:44.632Z,60.50
2022-12-17T21:46:50.060Z,46.00
2022-12-17T21:51:55.078Z,38.25
2022-12-17T21:56:57.841Z,39.25
2022-12-17T22:02:00.758Z,40.00
2022-12-17T22:07:12.538Z,42.33
2022-12-17T22:12:37.734Z,38.50
2022-12-17T22:17:42.538Z,39.75
2022-12-17T22:22:46.760Z,39.00
2022-12-17T22:27:50.104Z,38.50
2022-12-17T22:33:02.699Z,33.50
2022-12-17T22:40:51.362Z,34.75
2022-12-17T22:44:44.080Z,40.50
2022-12-17T22:49:05.039Z,37.25
2022-12-17T22:54:09.344Z,34.25
2022-12-17T22:59:15.592Z,35.50
2022-12-17T23:04:18.473Z,36.75
2022-12-17T23:09:24.010Z,36.50
2022-12-17T23:14:26.746Z,36.50
2022-12-17T23:19:29.612Z,38.00
2022-12-17T23:24:34.869Z,34.75
2022-12-17T23:29:37.661Z,36.50
2022-12-17T23:34:41.288Z,36.50
2022-12-17T23:39:45.437Z,36.25
2022-12-17T23:44:48.313Z,34.50
2022-12-17T23:49:51.129Z,41.00
2022-12-17T23:54:55.514Z,35.00
2022-12-17T23:59:58.430Z,35.00
